createdAt,value
2018-05-17T00:02:07.666Z,983.93
2018-05-17T00:03:07.707Z,983.97
2018-05-17T00:04:07.890Z,983.92
2018-05-17T00:05:08.094Z,983.91
2018-05-17T00:06:08.291Z,983.93
2018-05-17T00:07:08.511Z,983.99
2018-05-17T00:08:08.695Z,983.93
2018-05-17T00:09:08.918Z,983.96
2018-05-17T00:10:09.132Z,983.94
2018-05-17T00:11:09.324Z,983.95
2018-05-17T00:12:09.525Z,983.98
2018-05-17T00:13:09.710Z,983.99
2018-05-17T00:14:09.926Z,983.94
2018-05-17T00:15:10.141Z,984.01
2018-05-17T00:16:10.361Z,984.01
2018-05-17T00:17:10.567Z,984.02
2018-05-17T00:18:10.783Z,983.98
2018-05-17T00:19:10.975Z,984.05
2018-05-17T00:20:11.176Z,984.04
2018-05-17T00:21:11.384Z,984.03
2018-05-17T00:22:11.609Z,984.05
2018-05-17T00:24:43.760Z,984.02
2018-05-17T00:25:43.940Z,984.01
2018-05-17T00:26:44.286Z,984.04
2018-05-17T00:27:44.356Z,984.03
2018-05-17T00:28:44.561Z,984.04
2018-05-17T00:29:44.764Z,984.02
2018-05-17T00:30:44.960Z,983.98
2018-05-17T00:31:45.172Z,983.94
2018-05-17T00:32:45.378Z,983.92
2018-05-17T00:33:45.569Z,984.00
2018-05-17T00:34:45.748Z,983.96
2018-05-17T00:35:45.958Z,983.99
2018-05-17T00:36:46.140Z,983.97
2018-05-17T00:37:46.379Z,983.95
2018-05-17T00:38:46.565Z,983.98
2018-05-17T00:39:46.742Z,984.00
2018-05-17T00:40:46.932Z,984.02
2018-05-17T00:41:47.121Z,984.04
2018-05-17T00:42:47.307Z,984.04
2018-05-17T00:43:47.492Z,984.08
2018-05-17T00:44:47.696Z,984.05
2018-05-17T00:45:47.904Z,984.04
2018-05-17T00:46:48.105Z,984.10
2018-05-17T00:47:48.313Z,984.08
2018-05-17T00:48:48.520Z,984.10
2018-05-17T00:49:48.706Z,984.09
2018-05-17T00:50:48.904Z,984.05
2018-05-17T00:51:49.107Z,984.06
2018-05-17T00:52:49.309Z,984.01
2018-05-17T00:53:49.506Z,984.04
2018-05-17T00:54:49.707Z,984.02
2018-05-17T00:55:49.908Z,984.06
2018-05-17T00:56:50.120Z,984.06
2018-05-17T00:57:50.301Z,984.05
2018-05-17T00:58:50.501Z,984.01
2018-05-17T00:59:50.710Z,984.07
2018-05-17T01:00:50.910Z,984.06
2018-05-17T01:01:51.117Z,983.99
2018-05-17T01:02:51.315Z,984.06
2018-05-17T01:03:51.504Z,984.05
2018-05-17T01:04:51.694Z,984.06
2018-05-17T01:05:51.908Z,984.01
2018-05-17T01:06:52.090Z,984.04
2018-05-17T01:07:52.289Z,984.08
2018-05-17T01:08:52.499Z,984.06
2018-05-17T01:09:52.691Z,984.11
2018-05-17T01:10:52.902Z,984.05
2018-05-17T01:11:53.102Z,984.07
2018-05-17T01:12:53.284Z,984.05
2018-05-17T01:13:53.494Z,984.06
2018-05-17T01:14:53.706Z,984.07
2018-05-17T01:15:53.879Z,984.02
2018-05-17T01:16:54.094Z,984.03
2018-05-17T01:17:54.306Z,984.01
2018-05-17T01:18:54.503Z,984.02
2018-05-17T01:19:54.689Z,984.05
2018-05-17T01:20:54.895Z,984.07
2018-05-17T01:21:55.116Z,984.06
2018-05-17T01:22:55.324Z,984.08
2018-05-17T01:23:55.531Z,984.08
2018-05-17T01:24:55.741Z,984.05
2018-05-17T01:25:55.929Z,984.11
2018-05-17T01:26:56.137Z,984.10
2018-05-17T01:27:56.328Z,984.06
2018-05-17T01:28:56.519Z,984.08
2018-05-17T01:29:56.700Z,984.06
2018-05-17T01:30:56.897Z,984.07
2018-05-17T01:31:57.093Z,984.09
2018-05-17T01:32:57.298Z,984.09
2018-05-17T01:33:57.501Z,984.11
2018-05-17T01:34:57.756Z,984.10
2018-05-17T01:35:57.880Z,984.09
2018-05-17T01:36:58.076Z,984.07
2018-05-17T01:37:58.265Z,984.08
2018-05-17T01:38:58.479Z,984.13
2018-05-17T01:39:58.674Z,984.15
2018-05-17T01:40:58.877Z,984.17
2018-05-17T01:41:59.077Z,984.18
2018-05-17T01:42:59.289Z,984.17
2018-05-17T01:43:59.485Z,984.19
2018-05-17T01:44:59.673Z,984.22
2018-05-17T01:45:59.885Z,984.22
2018-05-17T01:47:00.087Z,984.25
2018-05-17T01:48:00.283Z,984.21
2018-05-17T01:49:00.464Z,984.27
2018-05-17T01:50:00.673Z,984.24
2018-05-17T01:51:00.874Z,984.23
2018-05-17T01:53:33.110Z,984.24
2018-05-17T01:54:33.280Z,984.20
2018-05-17T01:55:33.482Z,984.21
2018-05-17T01:56:33.667Z,984.24
2018-05-17T01:57:33.867Z,984.21
2018-05-17T01:58:34.055Z,984.24
2018-05-17T01:59:34.299Z,984.22
2018-05-17T02:00:34.513Z,984.20
2018-05-17T02:01:34.717Z,984.22
2018-05-17T02:02:34.913Z,984.26
2018-05-17T02:03:35.109Z,984.28
2018-05-17T02:04:35.324Z,984.25
2018-05-17T02:05:35.512Z,984.31
2018-05-17T02:06:35.731Z,984.25
2018-05-17T02:07:35.914Z,984.27
2018-05-17T02:08:36.105Z,984.25
2018-05-17T02:09:36.296Z,984.28
2018-05-17T02:10:36.493Z,984.26
2018-05-17T02:11:36.686Z,984.28
2018-05-17T02:12:36.896Z,984.28
2018-05-17T02:13:37.075Z,984.26
2018-05-17T02:14:37.283Z,984.27
2018-05-17T02:15:37.487Z,984.24
2018-05-17T02:16:37.690Z,984.24
2018-05-17T02:17:37.901Z,984.25
2018-05-17T02:18:38.100Z,984.20
2018-05-17T02:19:38.310Z,984.19
2018-05-17T02:20:38.502Z,984.17
2018-05-17T02:21:38.703Z,984.19
2018-05-17T02:22:38.907Z,984.18
2018-05-17T02:23:39.087Z,984.19
2018-05-17T02:24:39.274Z,984.19
2018-05-17T02:25:39.456Z,984.20
2018-05-17T02:26:39.650Z,984.21
2018-05-17T02:27:39.835Z,984.21
2018-05-17T02:28:40.024Z,984.26
2018-05-17T02:29:40.209Z,984.23
2018-05-17T02:30:40.414Z,984.22
2018-05-17T02:31:40.595Z,984.21
2018-05-17T02:32:40.784Z,984.25
2018-05-17T02:33:40.981Z,984.25
2018-05-17T02:36:13.534Z,984.29
2018-05-17T02:37:13.704Z,984.26
2018-05-17T02:38:13.891Z,984.26
2018-05-17T02:39:14.173Z,984.28
2018-05-17T02:40:14.262Z,984.26
2018-05-17T02:41:14.474Z,984.24
2018-05-17T02:42:14.668Z,984.27
2018-05-17T02:43:14.862Z,984.26
2018-05-17T02:44:15.078Z,984.29
2018-05-17T02:45:15.262Z,984.29
2018-05-17T02:46:15.462Z,984.28
2018-05-17T02:47:15.649Z,984.33
2018-05-17T02:48:15.829Z,984.24
2018-05-17T02:49:16.075Z,984.29
2018-05-17T02:50:16.269Z,984.33
2018-05-17T02:51:16.340Z,984.29
2018-05-17T02:52:16.546Z,984.34
2018-05-17T02:53:16.729Z,984.35
2018-05-17T02:54:16.937Z,984.27
2018-05-17T02:55:17.134Z,984.28
2018-05-17T02:56:17.342Z,984.33
2018-05-17T02:57:17.662Z,984.38
2018-05-17T02:58:17.793Z,984.37
2018-05-17T02:59:17.970Z,984.37
2018-05-17T03:00:18.181Z,984.42
2018-05-17T03:01:18.390Z,984.38
2018-05-17T03:02:18.575Z,984.37
2018-05-17T03:03:18.792Z,984.39
2018-05-17T03:04:18.989Z,984.36
2018-05-17T03:05:19.197Z,984.41
2018-05-17T03:06:19.401Z,984.40
2018-05-17T03:07:19.593Z,984.41
2018-05-17T03:08:19.810Z,984.41
2018-05-17T03:09:20.002Z,984.41
2018-05-17T03:10:20.193Z,984.38
2018-05-17T03:11:20.384Z,984.41
2018-05-17T03:12:20.591Z,984.42
2018-05-17T03:13:20.797Z,984.37
2018-05-17T03:14:20.980Z,984.38
2018-05-17T03:15:21.184Z,984.42
2018-05-17T03:16:21.370Z,984.41
2018-05-17T03:17:21.572Z,984.38
2018-05-17T03:18:21.751Z,984.47
2018-05-17T03:19:21.953Z,984.46
2018-05-17T03:20:22.157Z,984.43
2018-05-17T03:21:22.337Z,984.45
2018-05-17T03:22:22.561Z,984.45
2018-05-17T03:23:22.762Z,984.43
2018-05-17T03:24:22.970Z,984.44
2018-05-17T03:25:23.177Z,984.44
2018-05-17T03:26:23.373Z,984.43
2018-05-17T03:27:23.582Z,984.47
2018-05-17T03:29:56.355Z,984.44
2018-05-17T03:30:55.897Z,984.43
2018-05-17T03:31:56.094Z,984.41
2018-05-17T03:32:56.300Z,984.43
2018-05-17T03:33:56.512Z,984.43
2018-05-17T03:34:56.724Z,984.43
2018-05-17T03:35:56.937Z,984.43
2018-05-17T03:36:57.142Z,984.40
2018-05-17T03:37:57.354Z,984.41
2018-05-17T03:38:57.536Z,984.45
2018-05-17T03:39:57.752Z,984.41
2018-05-17T03:40:57.946Z,984.40
2018-05-17T03:41:58.149Z,984.42
2018-05-17T03:42:58.351Z,984.42
2018-05-17T03:43:58.540Z,984.42
2018-05-17T03:44:58.733Z,984.41
2018-05-17T03:45:58.933Z,984.44
2018-05-17T03:46:59.123Z,984.46
2018-05-17T03:47:59.330Z,984.44
2018-05-17T03:48:59.515Z,984.45
2018-05-17T03:49:59.738Z,984.45
2018-05-17T03:50:59.941Z,984.48
2018-05-17T03:53:32.070Z,984.49
2018-05-17T03:54:32.242Z,984.47
2018-05-17T03:55:32.426Z,984.46
2018-05-17T03:56:32.634Z,984.50
2018-05-17T03:57:32.840Z,984.54
2018-05-17T03:58:33.045Z,984.54
2018-05-17T03:59:33.255Z,984.54
2018-05-17T04:00:33.449Z,984.54
2018-05-17T04:01:33.647Z,984.57
2018-05-17T04:02:33.855Z,984.58
2018-05-17T04:03:34.144Z,984.58
2018-05-17T04:04:34.231Z,984.61
2018-05-17T04:05:34.421Z,984.62
2018-05-17T04:06:34.607Z,984.68
2018-05-17T04:07:34.807Z,984.66
2018-05-17T04:08:35.031Z,984.66
2018-05-17T04:09:35.195Z,984.72
2018-05-17T04:10:35.397Z,984.71
2018-05-17T04:11:35.605Z,984.75
2018-05-17T04:12:35.812Z,984.70
2018-05-17T04:13:36.021Z,984.76
2018-05-17T04:14:36.217Z,984.74
2018-05-17T04:15:36.415Z,984.79
2018-05-17T04:16:36.604Z,984.81
2018-05-17T04:17:36.813Z,984.84
2018-05-17T04:18:37.003Z,984.81
2018-05-17T04:19:37.212Z,984.83
2018-05-17T04:20:37.489Z,984.80
2018-05-17T04:21:37.636Z,984.83
2018-05-17T04:22:37.698Z,984.85
2018-05-17T04:23:37.906Z,984.86
2018-05-17T04:24:38.114Z,984.86
2018-05-17T04:25:38.319Z,984.84
2018-05-17T04:26:38.532Z,984.87
2018-05-17T04:27:38.721Z,984.92
2018-05-17T04:28:38.929Z,984.90
2018-05-17T04:29:39.119Z,984.95
2018-05-17T04:30:39.303Z,984.96
2018-05-17T04:31:39.494Z,984.96
2018-05-17T04:32:39.703Z,984.94
2018-05-17T04:33:39.905Z,984.95
2018-05-17T04:34:40.104Z,984.96
2018-05-17T04:35:40.392Z,984.99
2018-05-17T04:36:41.801Z,984.95
2018-05-17T04:37:41.312Z,985.03
2018-05-17T04:38:41.315Z,984.98
2018-05-17T04:39:40.998Z,984.98
2018-05-17T04:40:41.201Z,985.01
2018-05-17T04:43:13.332Z,985.05
2018-05-17T04:44:13.502Z,985.05
2018-05-17T04:45:13.708Z,985.08
2018-05-17T04:46:13.909Z,985.09
2018-05-17T04:47:14.101Z,985.08
2018-05-17T04:48:14.345Z,985.09
2018-05-17T04:49:14.536Z,985.12
2018-05-17T04:50:14.742Z,985.15
2018-05-17T04:51:14.925Z,985.15
2018-05-17T04:52:15.128Z,985.17
2018-05-17T04:53:15.339Z,985.17
2018-05-17T04:54:15.551Z,985.17
2018-05-17T04:55:15.735Z,985.17
2018-05-17T04:56:15.920Z,985.19
2018-05-17T04:57:16.126Z,985.22
2018-05-17T04:58:16.312Z,985.19
2018-05-17T04:59:16.514Z,985.21
2018-05-17T05:00:16.692Z,985.22
2018-05-17T05:01:16.880Z,985.23
2018-05-17T05:02:17.099Z,985.21
2018-05-17T05:03:17.414Z,985.23
2018-05-17T05:04:17.486Z,985.22
2018-05-17T05:05:17.673Z,985.24
2018-05-17T05:06:17.874Z,985.29
2018-05-17T05:07:18.067Z,985.28
2018-05-17T05:08:18.252Z,985.23
2018-05-17T05:09:18.439Z,985.26
2018-05-17T05:10:18.652Z,985.27
2018-05-17T05:11:18.840Z,985.27
2018-05-17T05:12:19.032Z,985.31
2018-05-17T05:13:19.229Z,985.26
2018-05-17T05:14:19.411Z,985.30
2018-05-17T05:15:19.605Z,985.32
2018-05-17T05:16:19.798Z,985.33
2018-05-17T05:17:20.005Z,985.31
2018-05-17T05:18:20.209Z,985.32
2018-05-17T05:19:20.415Z,985.30
2018-05-17T05:20:20.603Z,985.28
2018-05-17T05:21:20.783Z,985.34
2018-05-17T05:22:20.982Z,985.34
2018-05-17T05:23:21.194Z,985.37
2018-05-17T05:24:21.409Z,985.41
2018-05-17T05:25:21.646Z,985.44
2018-05-17T05:26:21.800Z,985.44
2018-05-17T05:27:22.003Z,985.41
2018-05-17T05:28:22.201Z,985.43
2018-05-17T05:29:22.421Z,985.44
2018-05-17T05:30:22.622Z,985.40
2018-05-17T05:31:22.838Z,985.40
2018-05-17T05:32:23.051Z,985.40
2018-05-17T05:33:23.236Z,985.40
2018-05-17T05:35:55.627Z,985.48
2018-05-17T05:36:55.564Z,985.45
2018-05-17T05:37:55.866Z,985.46
2018-05-17T05:38:55.931Z,985.46
2018-05-17T05:39:56.121Z,985.49
2018-05-17T05:40:56.334Z,985.47
2018-05-17T05:41:56.542Z,985.49
2018-05-17T05:42:56.852Z,985.48
2018-05-17T05:43:56.968Z,985.50
2018-05-17T05:44:57.175Z,985.49
2018-05-17T05:45:57.397Z,985.49
2018-05-17T05:46:57.600Z,985.51
2018-05-17T05:47:57.813Z,985.54
2018-05-17T05:48:58.128Z,985.57
2018-05-17T05:49:58.201Z,985.52
2018-05-17T05:50:58.388Z,985.58
2018-05-17T05:51:58.601Z,985.63
2018-05-17T05:52:58.784Z,985.60
2018-05-17T05:53:59.001Z,985.62
2018-05-17T05:54:59.180Z,985.66
2018-05-17T05:55:59.372Z,985.62
2018-05-17T05:56:59.587Z,985.65
2018-05-17T05:57:59.767Z,985.63
2018-05-17T05:58:59.968Z,985.64
2018-05-17T06:00:00.147Z,985.62
2018-05-17T06:01:00.355Z,985.64
2018-05-17T06:02:00.540Z,985.68
2018-05-17T06:03:00.739Z,985.65
2018-05-17T06:04:00.941Z,985.69
2018-05-17T06:05:01.125Z,985.70
2018-05-17T06:06:01.343Z,985.72
2018-05-17T06:07:01.560Z,985.71
2018-05-17T06:08:01.762Z,985.72
2018-05-17T06:09:01.943Z,985.75
2018-05-17T06:10:02.148Z,985.79
2018-05-17T06:11:02.344Z,985.76
2018-05-17T06:12:02.539Z,985.76
2018-05-17T06:13:02.749Z,985.78
2018-05-17T06:14:02.956Z,985.82
2018-05-17T06:15:03.143Z,985.81
2018-05-17T06:16:03.345Z,985.85
2018-05-17T06:17:03.544Z,985.90
2018-05-17T06:18:03.745Z,985.90
2018-05-17T06:19:03.950Z,985.92
2018-05-17T06:20:04.150Z,985.95
2018-05-17T06:21:04.330Z,985.97
2018-05-17T06:22:04.532Z,985.97
2018-05-17T06:23:04.732Z,985.94
2018-05-17T06:24:04.941Z,985.95
2018-05-17T06:25:05.128Z,985.95
2018-05-17T06:26:05.325Z,985.98
2018-05-17T06:27:05.525Z,986.02
2018-05-17T06:28:05.714Z,986.04
2018-05-17T06:29:05.910Z,986.15
2018-05-17T06:30:06.099Z,986.09
2018-05-17T06:31:06.294Z,986.12
2018-05-17T06:32:06.505Z,986.09
2018-05-17T06:33:06.698Z,986.08
2018-05-17T06:34:06.881Z,986.07
2018-05-17T06:35:07.082Z,986.06
2018-05-17T06:36:07.291Z,986.10
2018-05-17T06:37:07.488Z,986.08
2018-05-17T06:38:07.672Z,986.06
2018-05-17T06:39:07.948Z,986.06
2018-05-17T06:40:08.021Z,986.09
2018-05-17T06:41:08.224Z,986.12
2018-05-17T06:42:08.442Z,986.15
2018-05-17T06:43:08.640Z,986.16
2018-05-17T06:44:08.824Z,986.22
2018-05-17T06:45:09.010Z,986.18
2018-05-17T06:46:09.219Z,986.31
2018-05-17T06:47:09.413Z,986.21
2018-05-17T06:48:09.601Z,986.18
2018-05-17T06:49:09.813Z,986.18
2018-05-17T06:50:10.005Z,986.15
2018-05-17T06:51:10.223Z,986.12
2018-05-17T06:52:10.428Z,986.13
2018-05-17T06:53:10.640Z,986.10
2018-05-17T06:54:10.845Z,986.13
2018-05-17T06:55:11.044Z,986.10
2018-05-17T06:56:11.236Z,986.10
2018-05-17T06:57:11.450Z,986.08
2018-05-17T06:58:11.662Z,986.14
2018-05-17T06:59:11.850Z,986.21
2018-05-17T07:00:12.045Z,986.36
2018-05-17T07:01:12.274Z,986.52
2018-05-17T07:02:12.436Z,986.29
2018-05-17T07:03:12.627Z,986.26
2018-05-17T07:04:12.823Z,986.25
2018-05-17T07:05:13.007Z,986.41
2018-05-17T07:06:13.200Z,986.25
2018-05-17T07:07:13.401Z,986.39
2018-05-17T07:08:13.613Z,986.30
2018-05-17T07:09:13.828Z,986.33
2018-05-17T07:11:45.964Z,986.23
2018-05-17T07:12:46.150Z,986.22
2018-05-17T07:13:46.364Z,986.41
2018-05-17T07:14:46.579Z,986.35
2018-05-17T07:15:46.790Z,986.27
2018-05-17T07:16:46.993Z,986.28
2018-05-17T07:17:47.189Z,986.29
2018-05-17T07:18:47.710Z,986.29
2018-05-17T07:19:47.609Z,986.42
2018-05-17T07:20:47.815Z,986.35
2018-05-17T07:21:48.031Z,986.37
2018-05-17T07:22:48.243Z,986.44
2018-05-17T07:23:48.429Z,986.44
2018-05-17T07:24:48.620Z,986.48
2018-05-17T07:25:48.842Z,986.58
2018-05-17T07:26:49.027Z,986.57
2018-05-17T07:27:49.220Z,986.72
2018-05-17T07:28:49.471Z,986.68
2018-05-17T07:29:49.752Z,986.65
2018-05-17T07:30:49.860Z,986.65
2018-05-17T07:31:50.062Z,986.72
2018-05-17T07:32:50.273Z,986.71
2018-05-17T07:33:50.500Z,986.74
2018-05-17T07:36:22.690Z,986.72
2018-05-17T07:37:22.860Z,986.74
2018-05-17T07:38:23.049Z,986.70
2018-05-17T07:39:23.236Z,986.63
2018-05-17T07:40:23.457Z,986.68
2018-05-17T07:41:23.677Z,986.65
2018-05-17T07:42:23.892Z,986.60
2018-05-17T07:44:56.127Z,986.72
2018-05-17T07:45:56.181Z,986.78
2018-05-17T07:46:56.397Z,986.79
2018-05-17T07:47:56.585Z,986.78
2018-05-17T07:48:56.789Z,986.81
2018-05-17T07:49:56.988Z,986.88
2018-05-17T07:50:57.178Z,986.91
2018-05-17T07:51:57.378Z,987.02
2018-05-17T07:52:57.577Z,987.11
2018-05-17T07:53:57.767Z,987.11
2018-05-17T07:54:57.975Z,987.10
2018-05-17T07:55:58.243Z,987.09
2018-05-17T07:56:58.333Z,987.10
2018-05-17T07:57:58.519Z,987.08
2018-05-17T07:58:58.736Z,987.04
2018-05-17T07:59:58.929Z,987.11
2018-05-17T08:00:59.145Z,987.04
2018-05-17T08:01:59.352Z,987.09
2018-05-17T08:02:59.564Z,987.08
2018-05-17T08:03:59.767Z,986.94
2018-05-17T08:04:59.974Z,986.98
2018-05-17T08:06:00.172Z,986.97
2018-05-17T08:07:00.488Z,987.04
2018-05-17T08:08:00.597Z,987.17
2018-05-17T08:09:00.806Z,986.82
2018-05-17T08:10:01.012Z,986.88
2018-05-17T08:11:01.220Z,987.14
2018-05-17T08:12:01.429Z,986.95
2018-05-17T08:13:01.637Z,987.05
2018-05-17T08:14:01.830Z,986.89
2018-05-17T08:15:02.065Z,986.89
2018-05-17T08:16:02.241Z,986.99
2018-05-17T08:17:02.456Z,986.98
2018-05-17T08:18:02.771Z,986.82
2018-05-17T08:19:02.886Z,987.18
2018-05-17T08:20:03.087Z,986.82
2018-05-17T08:21:03.304Z,986.80
2018-05-17T08:22:03.487Z,986.71
2018-05-17T08:23:03.691Z,986.79
2018-05-17T08:24:03.899Z,986.86
2018-05-17T08:25:04.182Z,987.11
2018-05-17T08:26:04.267Z,987.25
2018-05-17T08:27:04.486Z,986.97
2018-05-17T08:28:04.686Z,987.42
2018-05-17T08:29:04.979Z,986.89
2018-05-17T08:30:05.113Z,986.83
2018-05-17T08:31:05.307Z,986.81
2018-05-17T08:32:05.501Z,986.88
2018-05-17T08:33:05.713Z,986.86
2018-05-17T08:34:05.921Z,987.45
2018-05-17T08:35:06.144Z,987.47
2018-05-17T08:36:06.436Z,987.52
2018-05-17T08:37:06.512Z,987.49
2018-05-17T08:38:06.727Z,987.47
2018-05-17T08:39:06.940Z,987.29
2018-05-17T08:40:07.181Z,987.03
2018-05-17T08:41:07.367Z,987.18
2018-05-17T08:42:07.581Z,987.06
2018-05-17T08:43:07.783Z,987.21
2018-05-17T08:44:07.985Z,987.35
2018-05-17T08:45:08.173Z,987.34
2018-05-17T08:46:08.392Z,987.26
2018-05-17T08:47:08.600Z,987.14
2018-05-17T08:48:08.814Z,986.99
2018-05-17T08:49:09.042Z,987.05
2018-05-17T08:50:09.199Z,986.99
2018-05-17T08:51:09.404Z,986.98
2018-05-17T08:52:09.608Z,987.00
2018-05-17T08:53:09.800Z,986.96
2018-05-17T08:54:10.021Z,986.99
2018-05-17T08:56:41.860Z,986.96
2018-05-17T08:57:42.036Z,986.94
2018-05-17T08:58:42.250Z,986.90
2018-05-17T08:59:42.462Z,987.22
2018-05-17T09:00:42.667Z,986.92
2018-05-17T09:01:42.865Z,986.92
2018-05-17T09:02:43.051Z,986.92
2018-05-17T09:03:43.276Z,986.87
2018-05-17T09:04:43.464Z,987.10
2018-05-17T09:07:15.286Z,986.86
2018-05-17T09:08:15.502Z,986.89
2018-05-17T09:09:15.720Z,986.90
2018-05-17T09:10:15.921Z,986.90
2018-05-17T09:11:16.112Z,986.86
2018-05-17T09:12:16.328Z,986.92
2018-05-17T09:13:16.532Z,987.36
2018-05-17T09:14:16.747Z,987.30
2018-05-17T09:15:16.934Z,987.23
2018-05-17T09:16:17.147Z,987.03
2018-05-17T09:17:17.360Z,987.32
2018-05-17T09:18:17.555Z,987.23
2018-05-17T09:19:17.857Z,987.43
2018-05-17T09:20:18.122Z,987.48
2018-05-17T09:21:18.142Z,987.56
2018-05-17T09:22:18.360Z,987.60
2018-05-17T09:23:18.581Z,987.66
2018-05-17T09:24:18.785Z,987.54
2018-05-17T09:25:18.997Z,987.47
2018-05-17T09:26:19.192Z,987.43
2018-05-17T09:27:19.409Z,987.42
2018-05-17T09:28:19.605Z,987.31
2018-05-17T09:29:19.894Z,987.35
2018-05-17T09:30:19.997Z,987.35
2018-05-17T09:31:20.214Z,987.30
2018-05-17T09:32:20.406Z,987.27
2018-05-17T09:33:20.597Z,987.38
2018-05-17T09:34:20.799Z,987.41
2018-05-17T09:35:20.991Z,987.37
2018-05-17T09:36:21.232Z,987.41
2018-05-17T09:37:21.445Z,987.28
2018-05-17T09:38:21.634Z,987.28
2018-05-17T09:39:21.838Z,987.33
2018-05-17T09:40:22.051Z,987.21
2018-05-17T09:41:22.269Z,987.15
2018-05-17T09:42:22.472Z,987.13
2018-05-17T09:43:22.679Z,987.10
2018-05-17T09:44:22.886Z,987.08
2018-05-17T09:45:23.111Z,987.10
2018-05-17T09:46:23.330Z,987.08
2018-05-17T09:47:23.546Z,987.04
2018-05-17T09:48:23.772Z,987.09
2018-05-17T09:49:23.984Z,987.08
2018-05-17T09:50:24.188Z,987.01
2018-05-17T09:51:24.396Z,987.08
2018-05-17T09:52:24.597Z,987.01
2018-05-17T09:53:24.810Z,987.07
2018-05-17T09:54:25.025Z,987.12
2018-05-17T09:55:25.237Z,987.15
2018-05-17T09:56:25.441Z,987.16
2018-05-17T09:57:25.655Z,987.31
2018-05-17T09:58:25.860Z,987.30
2018-05-17T09:59:26.081Z,987.21
2018-05-17T10:00:26.403Z,987.21
2018-05-17T10:01:26.502Z,987.32
2018-05-17T10:02:26.714Z,987.32
2018-05-17T10:03:26.928Z,987.31
2018-05-17T10:04:27.154Z,987.24
2018-05-17T10:05:27.360Z,987.28
2018-05-17T10:06:27.578Z,987.26
2018-05-17T10:07:27.770Z,987.11
2018-05-17T10:08:27.981Z,987.05
2018-05-17T10:09:28.199Z,987.28
2018-05-17T10:10:28.411Z,987.22
2018-05-17T10:11:28.629Z,987.20
2018-05-17T10:12:28.826Z,987.18
2018-05-17T10:13:29.027Z,987.35
2018-05-17T10:14:29.310Z,987.09
2018-05-17T10:15:29.536Z,987.05
2018-05-17T10:16:29.635Z,987.05
2018-05-17T10:17:29.826Z,987.10
2018-05-17T10:18:30.023Z,987.05
2018-05-17T10:19:30.227Z,987.05
2018-05-17T10:20:30.458Z,987.06
2018-05-17T10:21:30.648Z,987.01
2018-05-17T10:22:30.840Z,987.06
2018-05-17T10:23:31.073Z,987.07
2018-05-17T10:24:31.282Z,987.07
2018-05-17T10:25:31.542Z,987.02
2018-05-17T10:26:31.788Z,987.04
2018-05-17T10:27:31.860Z,986.98
2018-05-17T10:28:32.064Z,986.99
2018-05-17T10:29:32.296Z,986.94
2018-05-17T10:30:32.489Z,986.98
2018-05-17T10:31:32.684Z,987.00
2018-05-17T10:32:32.879Z,986.92
2018-05-17T10:33:33.091Z,986.93
2018-05-17T10:34:33.304Z,986.99
2018-05-17T10:35:33.530Z,986.98
2018-05-17T10:36:33.753Z,987.00
2018-05-17T10:37:33.961Z,987.03
2018-05-17T10:38:34.168Z,987.21
2018-05-17T10:39:34.381Z,987.19
2018-05-17T10:40:34.597Z,987.22
2018-05-17T10:41:34.812Z,987.21
2018-05-17T10:42:35.005Z,987.21
2018-05-17T10:43:35.210Z,987.22
2018-05-17T10:44:35.432Z,987.18
2018-05-17T10:45:35.648Z,987.18
2018-05-17T10:46:35.864Z,987.15
2018-05-17T10:47:36.078Z,987.12
2018-05-17T10:48:36.270Z,987.09
2018-05-17T10:49:36.467Z,987.10
2018-05-17T10:50:36.661Z,987.11
2018-05-17T10:51:36.868Z,987.18
2018-05-17T10:52:37.060Z,987.13
2018-05-17T10:53:37.251Z,987.16
2018-05-17T10:54:37.527Z,987.24
2018-05-17T10:55:37.671Z,987.16
2018-05-17T10:56:37.919Z,987.17
2018-05-17T10:57:38.134Z,987.13
2018-05-17T10:58:38.321Z,987.20
2018-05-17T10:59:38.533Z,987.19
2018-05-17T11:00:38.762Z,987.22
2018-05-17T11:01:38.951Z,987.16
2018-05-17T11:02:39.384Z,987.15
2018-05-17T11:03:39.363Z,987.17
2018-05-17T11:04:39.582Z,987.18
2018-05-17T11:05:39.788Z,987.09
2018-05-17T11:06:39.995Z,987.16
2018-05-17T11:07:40.192Z,987.20
2018-05-17T11:08:40.405Z,987.16
2018-05-17T11:09:40.613Z,987.09
2018-05-17T11:10:40.819Z,987.08
2018-05-17T11:11:41.042Z,987.15
2018-05-17T11:12:41.238Z,987.09
2018-05-17T11:13:41.431Z,987.12
2018-05-17T11:14:41.653Z,987.12
2018-05-17T11:15:41.860Z,987.10
2018-05-17T11:16:42.078Z,987.14
2018-05-17T11:17:42.279Z,987.08
2018-05-17T11:18:42.489Z,987.11
2018-05-17T11:19:42.671Z,987.13
2018-05-17T11:20:42.872Z,987.13
2018-05-17T11:21:43.085Z,987.07
2018-05-17T11:22:43.281Z,987.02
2018-05-17T11:23:43.484Z,987.02
2018-05-17T11:24:43.694Z,987.05
2018-05-17T11:25:43.897Z,987.03
2018-05-17T11:26:44.115Z,987.04
2018-05-17T11:27:44.327Z,987.04
2018-05-17T11:28:44.524Z,987.07
2018-05-17T11:29:44.719Z,987.05
2018-05-17T11:30:44.915Z,987.07
2018-05-17T11:31:45.137Z,987.06
2018-05-17T11:32:45.350Z,987.06
2018-05-17T11:33:45.563Z,987.01
2018-05-17T11:34:45.766Z,987.03
2018-05-17T11:35:45.965Z,987.03
2018-05-17T11:36:46.161Z,987.02
2018-05-17T11:37:46.371Z,987.03
2018-05-17T11:38:46.575Z,987.05
2018-05-17T11:39:46.765Z,987.01
2018-05-17T11:40:46.955Z,987.03
2018-05-17T11:41:47.146Z,987.01
2018-05-17T11:42:47.330Z,986.98
2018-05-17T11:43:47.541Z,987.02
2018-05-17T11:44:47.752Z,987.00
2018-05-17T11:45:47.966Z,986.97
2018-05-17T11:46:48.180Z,987.02
2018-05-17T11:47:48.427Z,986.96
2018-05-17T11:48:48.642Z,986.97
2018-05-17T11:49:48.837Z,986.97
2018-05-17T11:50:49.024Z,986.90
2018-05-17T11:51:49.226Z,986.93
2018-05-17T11:52:49.411Z,986.94
2018-05-17T11:53:49.607Z,986.90
2018-05-17T11:54:49.802Z,986.91
2018-05-17T11:55:49.991Z,986.94
2018-05-17T11:56:50.203Z,986.94
2018-05-17T11:57:50.397Z,986.84
2018-05-17T11:58:50.591Z,986.92
2018-05-17T11:59:50.793Z,986.93
2018-05-17T12:00:51.004Z,986.96
2018-05-17T12:01:51.227Z,986.94
2018-05-17T12:02:51.446Z,986.94
2018-05-17T12:03:51.655Z,986.95
2018-05-17T12:04:51.851Z,986.96
2018-05-17T12:05:52.063Z,986.96
2018-05-17T12:06:52.263Z,986.99
2018-05-17T12:07:52.479Z,987.07
2018-05-17T12:08:52.671Z,987.04
2018-05-17T12:09:52.862Z,987.02
2018-05-17T12:10:53.064Z,987.02
2018-05-17T12:11:53.258Z,987.01
2018-05-17T12:12:53.446Z,986.98
2018-05-17T12:13:53.660Z,987.01
2018-05-17T12:14:53.867Z,986.97
2018-05-17T12:15:54.068Z,986.95
2018-05-17T12:16:54.285Z,986.87
2018-05-17T12:17:54.496Z,986.89
2018-05-17T12:18:54.709Z,986.91
2018-05-17T12:19:54.946Z,986.91
2018-05-17T12:20:55.154Z,986.89
2018-05-17T12:21:55.371Z,986.92
2018-05-17T12:22:55.676Z,986.92
2018-05-17T12:23:55.779Z,986.87
2018-05-17T12:24:55.986Z,986.85
2018-05-17T12:25:56.189Z,986.84
2018-05-17T12:26:56.441Z,986.87
2018-05-17T12:27:56.564Z,986.86
2018-05-17T12:28:56.756Z,986.82
2018-05-17T12:29:56.969Z,986.83
2018-05-17T12:30:57.198Z,986.84
2018-05-17T12:31:57.480Z,986.84
2018-05-17T12:32:57.617Z,986.88
2018-05-17T12:33:57.827Z,986.88
2018-05-17T12:34:58.040Z,986.85
2018-05-17T12:35:58.230Z,986.88
2018-05-17T12:36:58.460Z,986.85
2018-05-17T12:37:58.665Z,986.86
2018-05-17T12:38:58.994Z,986.87
2018-05-17T12:39:59.084Z,986.86
2018-05-17T12:40:59.274Z,986.85
2018-05-17T12:41:59.472Z,986.80
2018-05-17T12:42:59.670Z,986.85
2018-05-17T12:43:59.878Z,986.78
2018-05-17T12:45:00.095Z,986.83
2018-05-17T12:46:00.308Z,986.84
2018-05-17T12:47:00.610Z,986.80
2018-05-17T12:48:00.702Z,986.85
2018-05-17T12:49:00.916Z,986.84
2018-05-17T12:50:01.129Z,986.77
2018-05-17T12:51:01.346Z,986.81